Terminal Aerodrome Forecast
Issued by NWS

Home | Current Version | Previous Version | Text Only | Print | Product List | Glossary On
Versions: 1 2 3 4 5 6 7 8 9 10 11 12 13 14 15 16 17 18 19 20 21 22 23
000
FTUS45 KCYS 012325
TAFLAR
TAF
KLAR 012325Z 0200/0224 15010KT P6SM VCTS BKN120CB
      TEMPO 0200/0202 VRB20G35KT 5SM -TSRA BKN050CB
     FM020300 18008KT P6SM BKN120
     FM021500 05010G20KT P6SM SCT120
     FM022000 09011G22KT P6SM VCTS BKN080CB=

USA.gov is the U.S. government's official web portal to all federal, state and local government web resources and services.